createdAt,value
2022-09-20T00:01:33.751Z,5.60
2022-09-20T00:06:36.304Z,5.10
2022-09-20T00:11:38.661Z,4.70
2022-09-20T00:16:41.000Z,6.80
2022-09-20T00:21:43.205Z,4.70
2022-09-20T00:26:45.115Z,3.80
2022-09-20T00:31:47.606Z,5.10
2022-09-20T00:36:50.609Z,4.10
2022-09-20T00:41:52.736Z,6.40
2022-09-20T00:46:55.455Z,4.40
2022-09-20T00:52:01.629Z,3.90
2022-09-20T00:57:04.212Z,5.50
2022-09-20T01:02:13.113Z,6.00
2022-09-20T01:07:19.543Z,5.30
2022-09-20T01:12:29.417Z,2.40
2022-09-20T01:17:34.525Z,4.90
2022-09-20T01:22:40.344Z,4.60
2022-09-20T01:27:47.396Z,4.50
2022-09-20T01:33:06.114Z,4.90
2022-09-20T01:38:26.881Z,4.20
2022-09-20T01:43:32.052Z,4.50
2022-09-20T01:48:39.235Z,5.30
2022-09-20T01:54:09.432Z,4.50
2022-09-20T01:59:48.377Z,3.70
2022-09-20T02:05:11.051Z,3.40
2022-09-20T02:10:34.676Z,5.30
2022-09-20T02:15:52.433Z,4.30
2022-09-20T02:26:29.739Z,4.40
2022-09-20T02:32:09.084Z,4.20
2022-09-20T02:37:43.780Z,4.10
2022-09-20T02:43:03.695Z,5.00
2022-09-20T02:48:05.931Z,3.30
2022-09-20T02:53:14.602Z,5.30
2022-09-20T02:58:38.430Z,4.40
2022-09-20T03:04:03.247Z,5.30
2022-09-20T03:09:35.846Z,5.40
2022-09-20T03:14:53.243Z,4.30
2022-09-20T03:20:08.389Z,5.70
2022-09-20T03:25:31.119Z,4.50
2022-09-20T03:30:42.624Z,5.00
2022-09-20T03:35:55.943Z,3.80
2022-09-20T03:41:26.028Z,3.10
2022-09-20T03:46:51.415Z,3.50
2022-09-20T03:52:17.928Z,5.40
2022-09-20T03:57:34.866Z,4.30
2022-09-20T04:03:02.928Z,4.40
2022-09-20T04:08:40.167Z,4.80
2022-09-20T04:13:54.189Z,6.40
2022-09-20T04:19:04.077Z,7.20
2022-09-20T04:24:14.393Z,6.10
2022-09-20T04:29:40.170Z,6.20
2022-09-20T04:35:24.096Z,5.50
2022-09-20T04:40:29.483Z,5.30
2022-09-20T04:46:09.750Z,6.00
2022-09-20T04:51:18.106Z,7.60
2022-09-20T04:56:28.253Z,5.60
2022-09-20T05:02:00.460Z,6.80
2022-09-20T05:07:21.087Z,7.10
2022-09-20T05:12:54.060Z,7.60
2022-09-20T05:18:10.713Z,8.40
2022-09-20T05:23:41.122Z,9.20
2022-09-20T05:28:55.426Z,9.00
2022-09-20T05:34:11.420Z,7.50
2022-09-20T05:39:41.785Z,8.10
2022-09-20T05:45:21.755Z,8.10
2022-09-20T05:50:41.512Z,8.30
2022-09-20T05:55:46.666Z,12.40
2022-09-20T06:01:02.610Z,9.10
2022-09-20T06:06:07.900Z,6.30
2022-09-20T06:11:15.906Z,7.00
2022-09-20T06:16:31.337Z,8.70
2022-09-20T06:21:52.228Z,6.40
2022-09-20T06:26:56.567Z,6.60
2022-09-20T06:31:58.832Z,7.70
2022-09-20T06:37:38.404Z,9.20
2022-09-20T06:42:44.682Z,6.10
2022-09-20T06:47:46.868Z,6.80
2022-09-20T06:52:50.121Z,6.80
2022-09-20T06:57:52.394Z,8.00
2022-09-20T07:02:56.682Z,6.60
2022-09-20T07:07:59.783Z,7.40
2022-09-20T07:13:02.558Z,8.50
2022-09-20T07:18:05.424Z,7.10
2022-09-20T07:23:07.953Z,10.00
2022-09-20T07:28:09.955Z,12.50
2022-09-20T07:33:17.203Z,9.00
2022-09-20T07:38:19.842Z,9.20
2022-09-20T07:43:22.538Z,7.60
2022-09-20T07:48:31.178Z,7.50
2022-09-20T07:53:34.266Z,8.60
2022-09-20T07:58:41.556Z,12.40
2022-09-20T08:03:44.744Z,5.70
2022-09-20T08:08:47.204Z,5.50
2022-09-20T08:14:08.885Z,3.80
2022-09-20T08:19:23.616Z,6.90
2022-09-20T08:24:26.713Z,8.20
2022-09-20T08:29:28.604Z,5.90
2022-09-20T08:34:31.095Z,7.70
2022-09-20T08:45:05.405Z,5.80
2022-09-20T08:50:17.620Z,6.40
2022-09-20T08:55:25.647Z,6.90
2022-09-20T09:00:34.042Z,10.40
2022-09-20T09:05:43.526Z,9.70
2022-09-20T09:10:59.460Z,13.20
2022-09-20T09:16:09.758Z,12.80
2022-09-20T09:21:30.032Z,10.90
2022-09-20T09:26:37.990Z,9.00
2022-09-20T09:31:41.200Z,6.60
2022-09-20T09:36:44.841Z,8.90
2022-09-20T09:41:48.405Z,7.10
2022-09-20T09:46:53.589Z,7.00
2022-09-20T09:52:12.738Z,8.10
2022-09-20T09:57:23.460Z,6.90
2022-09-20T10:03:04.746Z,7.90
2022-09-20T10:08:22.050Z,9.00
2022-09-20T10:13:43.846Z,7.20
2022-09-20T10:19:03.863Z,5.70
2022-09-20T10:24:41.760Z,8.00
2022-09-20T10:35:15.631Z,7.50
2022-09-20T10:40:57.142Z,6.70
2022-09-20T10:46:33.528Z,10.20
2022-09-20T10:52:05.244Z,7.70
2022-09-20T10:57:41.163Z,9.40
2022-09-20T11:02:59.123Z,15.80
2022-09-20T11:08:14.124Z,7.00
2022-09-20T11:13:26.052Z,6.10
2022-09-20T11:18:45.759Z,7.40
2022-09-20T11:24:21.846Z,6.40
2022-09-20T11:29:31.997Z,6.50
2022-09-20T11:34:59.489Z,6.20
2022-09-20T11:40:22.183Z,5.20
2022-09-20T11:45:28.558Z,5.70
2022-09-20T11:56:12.535Z,5.70
2022-09-20T12:01:17.167Z,5.60
2022-09-20T12:06:34.218Z,7.90
2022-09-20T12:11:38.906Z,6.10
2022-09-20T12:16:46.040Z,8.10
2022-09-20T12:22:00.390Z,5.90
2022-09-20T12:27:45.201Z,5.40
2022-09-20T12:32:53.083Z,4.50
2022-09-20T12:37:55.407Z,4.50
2022-09-20T12:42:58.147Z,4.20
2022-09-20T12:48:01.157Z,4.30
2022-09-20T12:53:12.295Z,6.00
2022-09-20T12:58:22.672Z,3.60
2022-09-20T13:03:41.219Z,6.10
2022-09-20T13:08:50.263Z,3.60
2022-09-20T13:13:58.294Z,4.20
2022-09-20T13:19:18.083Z,3.10
2022-09-20T13:24:24.001Z,2.40
2022-09-20T13:29:34.934Z,3.30
2022-09-20T13:34:38.144Z,3.20
2022-09-20T13:39:42.056Z,2.70
2022-09-20T13:44:46.128Z,2.70
2022-09-20T13:49:49.109Z,3.70
2022-09-20T13:54:55.378Z,3.30
2022-09-20T14:00:01.108Z,3.70
2022-09-20T14:05:07.100Z,3.30
2022-09-20T14:10:36.453Z,2.80
2022-09-20T14:15:45.170Z,3.20
2022-09-20T14:20:48.331Z,4.00
2022-09-20T14:26:15.946Z,2.30
2022-09-20T14:36:27.891Z,2.90
2022-09-20T14:41:36.937Z,2.50
2022-09-20T14:46:39.168Z,4.60
2022-09-20T14:51:41.343Z,2.50
2022-09-20T14:56:52.810Z,2.70
2022-09-20T15:02:16.041Z,2.60
2022-09-20T15:07:18.703Z,4.40
2022-09-20T15:12:21.588Z,2.60
2022-09-20T15:17:24.266Z,4.60
2022-09-20T15:22:27.175Z,2.10
2022-09-20T15:27:30.144Z,3.30
2022-09-20T15:32:33.291Z,2.90
2022-09-20T15:37:35.702Z,2.00
2022-09-20T15:42:37.845Z,2.00
2022-09-20T15:47:39.856Z,2.80
2022-09-20T15:52:42.260Z,1.90
2022-09-20T15:57:45.111Z,3.80
2022-09-20T16:02:50.686Z,3.80
2022-09-20T16:07:53.862Z,3.20
2022-09-20T16:12:56.942Z,3.00
2022-09-20T16:18:18.222Z,1.60
2022-09-20T16:23:24.087Z,2.10
2022-09-20T16:28:32.045Z,2.50
2022-09-20T16:33:35.724Z,3.20
2022-09-20T16:38:37.931Z,3.30
2022-09-20T16:43:41.669Z,4.40
2022-09-20T16:48:44.055Z,7.80
2022-09-20T16:53:46.133Z,7.70
2022-09-20T16:58:49.348Z,3.20
2022-09-20T17:03:51.448Z,3.30
2022-09-20T17:08:58.801Z,4.20
2022-09-20T17:14:01.746Z,2.30
2022-09-20T17:19:16.129Z,3.40
2022-09-20T17:24:20.937Z,2.20
2022-09-20T17:29:23.696Z,3.30
2022-09-20T17:34:27.512Z,2.00
2022-09-20T17:39:29.227Z,4.30
2022-09-20T17:44:34.734Z,5.30
2022-09-20T17:49:39.675Z,3.20
2022-09-20T17:54:43.398Z,8.50
2022-09-20T17:59:45.979Z,4.20
2022-09-20T18:04:48.870Z,5.10
2022-09-20T18:09:51.224Z,3.80
2022-09-20T18:14:53.579Z,2.70
2022-09-20T18:19:55.592Z,3.10
2022-09-20T18:24:57.696Z,4.20
2022-09-20T18:30:03.447Z,2.80
2022-09-20T18:35:06.697Z,6.20
2022-09-20T18:40:10.202Z,3.40
2022-09-20T18:45:12.806Z,5.30
2022-09-20T18:50:15.039Z,5.90
2022-09-20T18:55:17.778Z,4.80
2022-09-20T19:00:20.526Z,3.50
2022-09-20T19:05:25.904Z,6.90
2022-09-20T19:10:34.924Z,5.40
2022-09-20T19:15:43.567Z,6.50
2022-09-20T19:20:58.107Z,8.20
2022-09-20T19:26:08.465Z,4.60
2022-09-20T19:31:30.389Z,5.90
2022-09-20T19:36:32.440Z,7.00
2022-09-20T19:41:44.849Z,7.40
2022-09-20T19:46:57.379Z,8.60
2022-09-20T19:52:04.225Z,14.80
2022-09-20T19:57:15.665Z,5.70
2022-09-20T20:02:18.624Z,9.60
2022-09-20T20:07:37.069Z,8.60
2022-09-20T20:13:27.872Z,7.90
2022-09-20T20:19:08.220Z,9.10
2022-09-20T20:24:32.920Z,10.70
2022-09-20T20:29:35.851Z,17.10
2022-09-20T20:34:40.033Z,17.00
2022-09-20T20:39:42.827Z,15.80
2022-09-20T20:44:45.148Z,13.50
2022-09-20T20:49:50.743Z,16.40
2022-09-20T20:59:57.206Z,18.00
2022-09-20T21:05:00.842Z,13.30
2022-09-20T21:10:03.357Z,15.10
2022-09-20T21:15:06.807Z,12.70
2022-09-20T21:20:09.901Z,10.40
2022-09-20T21:25:12.017Z,16.10
2022-09-20T21:30:14.279Z,11.70
2022-09-20T21:35:16.722Z,11.50
2022-09-20T21:40:19.194Z,16.00
2022-09-20T21:45:23.827Z,9.70
2022-09-20T21:50:26.661Z,7.80
2022-09-20T21:55:28.951Z,13.60
2022-09-20T22:00:30.959Z,11.20
2022-09-20T22:05:34.168Z,12.70
2022-09-20T22:10:36.580Z,12.70
2022-09-20T22:15:38.765Z,11.80
2022-09-20T22:20:40.855Z,10.30
2022-09-20T22:25:43.903Z,13.80
2022-09-20T22:30:45.946Z,13.80
2022-09-20T22:35:48.202Z,12.10
2022-09-20T22:40:54.836Z,16.20
2022-09-20T22:46:02.521Z,10.70
2022-09-20T22:51:08.587Z,9.40
2022-09-20T22:56:12.468Z,11.90
2022-09-20T23:01:21.226Z,11.50
2022-09-20T23:06:29.900Z,10.60
2022-09-20T23:11:32.584Z,11.80
2022-09-20T23:16:36.388Z,11.60
2022-09-20T23:21:40.248Z,11.10
2022-09-20T23:26:42.986Z,12.50
2022-09-20T23:31:47.488Z,10.90
2022-09-20T23:36:50.422Z,11.20
2022-09-20T23:41:52.629Z,13.50
2022-09-20T23:46:55.364Z,9.80
2022-09-20T23:51:57.847Z,10.50
2022-09-20T23:57:00.059Z,7.70
